Time;durP1;ratioP1;P1;durP2;ratioP2;P2;SDS_P1;SDS_P2;PMS_P1;PMS_P2;Temp;Humidity;BMP_temperature;BMP_pressure;BME280_temperature;BME280_humidity;BME280_pressure;Samples;Min_cycle;Max_cycle;Signal;HPM_P1;HPM_P2
2021/06/03 00:02:21;;;;;;;4.30;4.00;;;24.50;40.70;;;;;;5032939;28;20188;-47
2021/06/03 00:04:47;;;;;;;3.90;3.50;;;24.40;40.50;;;;;;5031944;28;20230;-44
2021/06/03 00:07:13;;;;;;;4.60;4.20;;;24.40;40.60;;;;;;5032449;28;20204;-44
2021/06/03 00:09:39;;;;;;;4.43;3.93;;;24.30;40.60;;;;;;5031737;28;20189;-46
2021/06/03 00:12:06;;;;;;;4.30;3.90;;;24.30;40.50;;;;;;5032584;28;20915;-44
2021/06/03 00:14:32;;;;;;;4.73;4.43;;;24.30;40.50;;;;;;5025658;28;20193;-44
2021/06/03 00:16:58;;;;;;;5.03;4.10;;;24.30;40.50;;;;;;5037666;28;20471;-44
2021/06/03 00:19:24;;;;;;;4.10;3.80;;;24.20;40.70;;;;;;5037766;28;20197;-44
2021/06/03 00:21:50;;;;;;;4.03;3.73;;;24.20;40.80;;;;;;5030924;28;20595;-43
2021/06/03 00:24:15;;;;;;;4.97;4.20;;;24.10;40.90;;;;;;5031612;28;20573;-44
2021/06/03 00:26:41;;;;;;;4.17;3.87;;;24.00;41.30;;;;;;5031483;28;20432;-43
2021/06/03 00:29:09;;;;;;;4.17;3.80;;;23.90;41.40;;;;;;5031647;28;20192;-44
2021/06/03 00:31:35;;;;;;;4.83;4.20;;;23.90;41.30;;;;;;5032448;28;20428;-43
2021/06/03 00:34:01;;;;;;;4.17;3.87;;;23.70;41.50;;;;;;5031640;28;20435;-44
2021/06/03 00:36:26;;;;;;;6.00;4.27;;;23.40;42.20;;;;;;5032002;28;20558;-45
2021/06/03 00:38:52;;;;;;;4.47;4.07;;;23.20;42.80;;;;;;5031238;28;20239;-44
2021/06/03 00:41:19;;;;;;;4.23;3.90;;;23.00;43.10;;;;;;5032320;28;20189;-44
2021/06/03 00:43:45;;;;;;;4.00;3.70;;;23.00;43.60;;;;;;5031430;28;20225;-46
2021/06/03 00:46:11;;;;;;;4.90;4.40;;;23.00;43.40;;;;;;5019064;28;20483;-43
2021/06/03 00:48:37;;;;;;;3.93;3.53;;;23.10;43.30;;;;;;5028486;28;20192;-44
2021/06/03 00:51:06;;;;;;;4.77;3.90;;;23.20;43.40;;;;;;5031919;28;20425;-47
2021/06/03 00:53:33;;;;;;;4.43;4.03;;;23.20;43.20;;;;;;5031131;28;20432;-44
2021/06/03 00:55:59;;;;;;;7.33;4.27;;;23.00;44.20;;;;;;5028800;28;20499;-43
2021/06/03 00:58:26;;;;;;;6.13;4.07;;;22.80;43.90;;;;;;5031305;28;20491;-44
2021/06/03 01:00:54;;;;;;;4.93;3.50;;;22.80;43.80;;;;;;5032078;28;20430;-43
2021/06/03 01:03:21;;;;;;;4.30;3.90;;;22.80;43.60;;;;;;5030877;28;20420;-44
2021/06/03 01:05:57;;;;;;;3.90;3.50;;;22.70;43.50;;;;;;5031187;28;20906;-44
2021/06/03 01:08:26;;;;;;;4.20;3.90;;;22.80;43.30;;;;;;5031359;28;20466;-44
2021/06/03 01:11:09;;;;;;;5.00;3.20;;;22.80;43.30;;;;;;5031412;28;20428;-46
2021/06/03 01:13:41;;;;;;;5.03;3.83;;;22.90;43.20;;;;;;5034184;28;20518;-44
2021/06/03 01:16:08;;;;;;;4.20;3.90;;;23.00;43.10;;;;;;5050198;28;21032;-43
2021/06/03 01:18:38;;;;;;;3.53;3.23;;;23.00;43.20;;;;;;5050433;28;20490;-43
2021/06/03 01:21:07;;;;;;;3.80;3.50;;;22.80;43.20;;;;;;5051678;28;20480;-44
2021/06/03 01:23:57;;;;;;;7.30;3.53;;;22.70;43.50;;;;;;5050582;28;20434;-43
2021/06/03 01:26:23;;;;;;;4.17;3.87;;;22.80;43.50;;;;;;5046895;28;20446;-43
2021/06/03 01:28:49;;;;;;;4.20;3.80;;;22.80;43.50;;;;;;5050787;28;20435;-44
2021/06/03 01:31:15;;;;;;;4.90;3.90;;;22.90;43.50;;;;;;5051490;28;20537;-44
2021/06/03 01:33:42;;;;;;;5.40;3.70;;;22.90;43.30;;;;;;5050650;28;20438;-43
2021/06/03 01:36:11;;;;;;;4.37;3.97;;;22.80;43.20;;;;;;5051014;28;20198;-43
2021/06/03 01:38:39;;;;;;;6.00;3.80;;;22.80;43.30;;;;;;5046488;28;20483;-43
2021/06/03 01:41:07;;;;;;;3.93;3.53;;;22.30;44.40;;;;;;5033821;28;20423;-46
2021/06/03 01:43:35;;;;;;;6.30;4.13;;;22.10;44.90;;;;;;5034627;28;20781;-43
2021/06/03 01:46:01;;;;;;;5.93;3.53;;;21.90;45.50;;;;;;5035283;28;20443;-43
2021/06/03 01:48:27;;;;;;;4.87;4.47;;;22.00;45.50;;;;;;5034993;28;20466;-48
2021/06/03 01:50:55;;;;;;;3.93;3.63;;;21.90;45.40;;;;;;5035105;28;20428;-47
2021/06/03 01:53:25;;;;;;;5.17;4.57;;;22.00;45.40;;;;;;5034617;28;20239;-48
2021/06/03 01:55:52;;;;;;;4.60;4.20;;;22.10;45.30;;;;;;5030321;28;20428;-47
2021/06/03 01:58:19;;;;;;;4.97;4.57;;;22.00;45.30;;;;;;5034437;28;20487;-44
2021/06/03 02:00:45;;;;;;;5.37;4.07;;;22.10;45.40;;;;;;5035080;28;20420;-47
2021/06/03 02:03:11;;;;;;;4.53;3.80;;;22.10;45.40;;;;;;5034461;28;20435;-47
2021/06/03 02:05:36;;;;;;;4.73;4.40;;;22.00;45.70;;;;;;5034322;28;20645;-47
2021/06/03 02:08:02;;;;;;;5.00;4.50;;;22.00;45.60;;;;;;5033279;28;20271;-44
2021/06/03 02:10:28;;;;;;;4.33;4.00;;;22.10;45.50;;;;;;5034631;28;20247;-46
2021/06/03 02:13:19;;;;;;;4.33;3.93;;;22.20;45.40;;;;;;5029362;28;20285;-44
2021/06/03 02:16:05;;;;;;;4.93;3.80;;;22.10;45.60;;;;;;5043866;28;20216;-47
2021/06/03 02:18:50;;;;;;;3.90;3.60;;;21.90;46.00;;;;;;5054131;28;20502;-44
2021/06/03 02:21:18;;;;;;;4.70;4.17;;;21.80;46.10;;;;;;5054323;28;20801;-44
2021/06/03 02:23:46;;;;;;;4.60;4.27;;;21.70;46.70;;;;;;5053742;28;20434;-46
2021/06/03 02:26:13;;;;;;;4.07;3.77;;;21.30;47.40;;;;;;5054185;28;20430;-46
2021/06/03 02:28:40;;;;;;;4.60;4.30;;;21.30;48.10;;;;;;5053664;28;20506;-44
2021/06/03 02:31:05;;;;;;;6.10;3.60;;;21.40;47.60;;;;;;5054405;28;20773;-47
2021/06/03 02:33:32;;;;;;;4.77;4.37;;;21.20;47.70;;;;;;5052169;28;20472;-47
2021/06/03 02:35:58;;;;;;;4.80;3.80;;;21.10;48.60;;;;;;5054050;28;20226;-46
2021/06/03 02:38:26;;;;;;;4.87;4.30;;;21.10;48.10;;;;;;5050893;28;20578;-44
2021/06/03 02:40:58;;;;;;;4.77;4.37;;;21.30;47.90;;;;;;5034369;28;20436;-47
2021/06/03 02:43:24;;;;;;;4.67;4.23;;;21.40;47.60;;;;;;5033735;28;20463;-44
2021/06/03 02:45:49;;;;;;;5.07;4.07;;;21.50;47.50;;;;;;5032403;28;20511;-44
2021/06/03 02:48:15;;;;;;;4.60;4.20;;;21.50;47.20;;;;;;5033588;28;20272;-44
2021/06/03 02:50:42;;;;;;;4.50;4.13;;;21.50;47.20;;;;;;5033729;28;20190;-44
2021/06/03 02:53:08;;;;;;;4.80;4.40;;;21.50;47.20;;;;;;5034250;28;20219;-48
2021/06/03 02:55:34;;;;;;;4.90;3.90;;;21.60;47.10;;;;;;5028472;28;20474;-43
2021/06/03 02:57:59;;;;;;;5.10;3.73;;;21.60;47.00;;;;;;5034113;28;20636;-43
2021/06/03 03:00:32;;;;;;;3.80;3.40;;;21.50;47.00;;;;;;5031840;28;20420;-44
2021/06/03 03:02:59;;;;;;;4.80;4.27;;;21.60;46.80;;;;;;5033862;28;20193;-43
2021/06/03 03:05:26;;;;;;;4.70;3.57;;;21.60;46.80;;;;;;5032808;28;20562;-43
2021/06/03 03:07:52;;;;;;;4.87;4.47;;;21.70;46.70;;;;;;5033757;28;21006;-43
2021/06/03 03:10:33;;;;;;;5.50;4.00;;;21.60;46.70;;;;;;5033336;28;20428;-46
2021/06/03 03:12:59;;;;;;;4.73;3.60;;;21.60;46.70;;;;;;5033613;28;20428;-44
2021/06/03 03:15:25;;;;;;;5.17;4.67;;;21.70;46.60;;;;;;5019387;28;20448;-46
2021/06/03 03:17:52;;;;;;;5.00;4.60;;;21.60;46.80;;;;;;5030769;28;20700;-47
2021/06/03 03:20:19;;;;;;;5.90;3.80;;;21.60;46.90;;;;;;5033230;28;20424;-46
2021/06/03 03:22:46;;;;;;;4.10;3.80;;;21.60;46.90;;;;;;5033349;28;20460;-45
2021/06/03 03:25:14;;;;;;;4.10;3.80;;;21.70;47.10;;;;;;5032628;28;20428;-47
2021/06/03 03:27:41;;;;;;;5.90;5.43;;;21.50;47.50;;;;;;5031807;28;20428;-46
2021/06/03 03:30:08;;;;;;;9.13;4.60;;;21.30;48.10;;;;;;5032895;28;20439;-48
2021/06/03 03:32:34;;;;;;;4.30;4.00;;;21.30;47.90;;;;;;5033307;28;20860;-45
2021/06/03 03:35:00;;;;;;;4.57;4.17;;;21.30;47.70;;;;;;5032844;28;20425;-47
2021/06/03 03:37:30;;;;;;;5.70;3.80;;;21.40;47.60;;;;;;5033068;28;20471;-45
2021/06/03 03:39:58;;;;;;;4.73;4.10;;;21.40;47.50;;;;;;5032552;28;20912;-45
2021/06/03 03:42:24;;;;;;;4.83;3.80;;;21.30;47.40;;;;;;5033092;28;20442;-46
2021/06/03 03:44:51;;;;;;;4.70;4.27;;;21.20;47.70;;;;;;5032007;28;20895;-46
2021/06/03 03:47:17;;;;;;;5.80;4.10;;;21.00;48.20;;;;;;5033173;28;20197;-43
2021/06/03 03:49:43;;;;;;;5.90;4.53;;;21.00;48.30;;;;;;5032479;28;20478;-47
2021/06/03 03:52:09;;;;;;;4.83;4.43;;;21.00;48.40;;;;;;5032746;28;20432;-47
2021/06/03 03:54:35;;;;;;;4.47;4.07;;;21.10;48.20;;;;;;5025814;28;20425;-46
2021/06/03 03:57:01;;;;;;;6.23;4.17;;;21.10;48.00;;;;;;5033020;28;20424;-43
2021/06/03 03:59:26;;;;;;;4.30;3.90;;;21.20;47.90;;;;;;5032358;28;20189;-43
2021/06/03 04:01:54;;;;;;;4.53;4.17;;;21.40;47.60;;;;;;5031764;28;20194;-48
2021/06/03 04:04:21;;;;;;;3.87;3.57;;;21.50;47.40;;;;;;5031969;28;20663;-43
2021/06/03 04:06:47;;;;;;;4.47;4.07;;;21.60;47.20;;;;;;5032629;28;20420;-47
2021/06/03 04:09:12;;;;;;;4.27;3.87;;;21.70;47.00;;;;;;5031980;28;20420;-47
2021/06/03 04:11:38;;;;;;;4.30;3.90;;;21.70;46.80;;;;;;5032357;28;20469;-46
2021/06/03 04:14:04;;;;;;;4.30;3.90;;;21.70;46.60;;;;;;5031922;28;20189;-46
2021/06/03 04:16:30;;;;;;;3.63;3.33;;;21.60;46.60;;;;;;5032142;28;20192;-44
2021/06/03 04:18:56;;;;;;;3.97;3.47;;;21.50;46.90;;;;;;5050941;28;20489;-44
2021/06/03 04:21:21;;;;;;;3.83;3.53;;;21.20;47.10;;;;;;5051773;28;20726;-43
2021/06/03 04:23:47;;;;;;;4.23;3.77;;;21.00;47.60;;;;;;5051395;28;20189;-45
2021/06/03 04:26:13;;;;;;;5.40;4.10;;;20.90;48.30;;;;;;5052112;28;20196;-43
2021/06/03 04:28:39;;;;;;;4.20;3.90;;;20.60;49.20;;;;;;5051471;28;20189;-46
2021/06/03 04:31:04;;;;;;;8.00;3.93;;;20.60;49.30;;;;;;5052458;28;20918;-45
2021/06/03 04:33:30;;;;;;;4.20;3.53;;;20.60;49.60;;;;;;5051341;28;20207;-44
2021/06/03 04:35:56;;;;;;;6.13;3.67;;;20.30;50.20;;;;;;5051830;28;20317;-48
2021/06/03 04:38:21;;;;;;;4.53;4.13;;;20.20;50.60;;;;;;5049407;28;20227;-48
2021/06/03 04:40:48;;;;;;;4.37;3.70;;;20.20;50.60;;;;;;5032158;28;20660;-47
2021/06/03 04:43:14;;;;;;;5.07;4.50;;;19.90;51.20;;;;;;5031746;28;20637;-45
2021/06/03 04:45:39;;;;;;;3.83;3.53;;;20.10;51.30;;;;;;5023631;28;20772;-44
2021/06/03 04:48:07;;;;;;;4.73;4.30;;;20.00;51.30;;;;;;5031982;28;20562;-47
2021/06/03 04:50:34;;;;;;;6.13;3.73;;;20.20;50.70;;;;;;5031367;28;20649;-46
2021/06/03 04:53:00;;;;;;;4.90;3.90;;;20.30;50.50;;;;;;5031831;28;20940;-43
2021/06/03 04:55:27;;;;;;;3.90;3.60;;;20.50;50.10;;;;;;5026528;28;20738;-43
2021/06/03 04:57:54;;;;;;;4.30;3.90;;;20.80;49.40;;;;;;5031797;28;20498;-46
2021/06/03 05:00:28;;;;;;;4.10;3.80;;;20.90;49.10;;;;;;5031222;28;20491;-46
2021/06/03 05:02:54;;;;;;;4.50;3.70;;;21.00;49.30;;;;;;5031927;28;20432;-46
2021/06/03 05:05:21;;;;;;;4.17;3.77;;;21.10;49.30;;;;;;5030815;28;20439;-48
2021/06/03 05:07:47;;;;;;;4.90;4.47;;;21.10;49.40;;;;;;5031694;28;20430;-45
2021/06/03 05:10:14;;;;;;;5.40;4.10;;;21.30;49.20;;;;;;5031107;28;20922;-48
2021/06/03 05:12:40;;;;;;;6.97;3.80;;;21.50;48.90;;;;;;5029771;28;20455;-45
2021/06/03 05:15:07;;;;;;;4.67;4.27;;;21.30;49.30;;;;;;5031020;28;20925;-48
2021/06/03 05:17:34;;;;;;;5.10;4.60;;;21.50;49.00;;;;;;5031390;28;20597;-47
2021/06/03 05:20:00;;;;;;;4.70;4.30;;;21.60;48.80;;;;;;5029874;28;20439;-48
2021/06/03 05:22:26;;;;;;;4.23;3.83;;;21.60;48.60;;;;;;5031272;28;20443;-47
2021/06/03 05:24:52;;;;;;;4.93;3.90;;;21.40;49.10;;;;;;5030680;28;20787;-43
2021/06/03 05:27:17;;;;;;;4.83;3.90;;;21.50;49.20;;;;;;5031541;28;20197;-44
2021/06/03 05:29:43;;;;;;;6.50;4.93;;;21.60;49.00;;;;;;5031036;28;20197;-44
2021/06/03 05:32:09;;;;;;;6.27;5.67;;;21.80;48.60;;;;;;5031351;28;20195;-47
2021/06/03 05:34:34;;;;;;;6.90;5.80;;;21.90;47.90;;;;;;5030835;28;20609;-43
2021/06/03 05:37:00;;;;;;;5.33;4.43;;;22.00;47.60;;;;;;5031578;28;20189;-44
2021/06/03 05:39:26;;;;;;;5.47;4.97;;;22.00;47.50;;;;;;5029423;28;20192;-43
2021/06/03 05:41:52;;;;;;;4.33;3.93;;;21.90;47.90;;;;;;5031192;28;20923;-46
2021/06/03 05:44:17;;;;;;;4.07;3.67;;;21.90;48.00;;;;;;5030500;28;20193;-43
2021/06/03 05:46:43;;;;;;;4.63;3.90;;;21.80;48.40;;;;;;5027436;28;20251;-43
2021/06/03 05:49:10;;;;;;;5.83;4.23;;;21.90;48.30;;;;;;5050138;28;20230;-48
2021/06/03 05:51:38;;;;;;;5.90;4.37;;;21.90;48.60;;;;;;5051111;28;20193;-43
2021/06/03 05:54:04;;;;;;;4.83;4.37;;;22.10;48.50;;;;;;5048803;28;20794;-44
2021/06/03 05:56:29;;;;;;;5.10;4.30;;;22.20;48.40;;;;;;5027948;28;20424;-43
2021/06/03 05:58:56;;;;;;;6.30;4.40;;;22.40;48.20;;;;;;5030564;28;20287;-43
2021/06/03 06:01:22;;;;;;;3.80;3.60;;;22.50;47.90;;;;;;5030883;28;20259;-44
2021/06/03 06:04:08;;;;;;;5.50;4.30;;;22.60;47.80;;;;;;5030915;28;20431;-44
2021/06/03 06:06:33;;;;;;;4.63;4.23;;;22.70;47.60;;;;;;5029159;28;20432;-44
2021/06/03 06:09:04;;;;;;;4.67;4.27;;;22.90;47.60;;;;;;5030596;28;20467;-43
2021/06/03 06:11:31;;;;;;;4.00;3.70;;;23.00;47.60;;;;;;5030949;28;20198;-45
2021/06/03 06:13:58;;;;;;;4.30;3.90;;;23.10;47.60;;;;;;5030586;28;20431;-43
2021/06/03 06:16:23;;;;;;;4.60;3.93;;;23.10;48.00;;;;;;5030962;28;20424;-48
2021/06/03 06:18:49;;;;;;;4.40;4.10;;;23.20;48.20;;;;;;5030342;28;20553;-43
2021/06/03 06:21:17;;;;;;;6.13;4.70;;;23.20;48.40;;;;;;5030971;28;20636;-44
2021/06/03 06:23:45;;;;;;;4.40;4.00;;;23.40;48.80;;;;;;5030497;28;20431;-46
2021/06/03 06:26:11;;;;;;;4.10;3.80;;;23.50;49.00;;;;;;5033214;28;20418;-44
2021/06/03 06:28:37;;;;;;;5.10;4.70;;;23.60;49.10;;;;;;5033839;28;20448;-45
2021/06/03 06:31:04;;;;;;;4.50;4.10;;;23.60;49.20;;;;;;5034432;28;20435;-43
2021/06/03 06:33:30;;;;;;;4.47;4.00;;;23.70;48.70;;;;;;5032535;28;20528;-45
2021/06/03 06:35:56;;;;;;;4.90;4.50;;;23.90;48.20;;;;;;5034054;28;20463;-45
2021/06/03 06:38:22;;;;;;;4.37;3.97;;;24.10;48.40;;;;;;5033754;28;20674;-45
2021/06/03 06:40:49;;;;;;;4.67;4.10;;;24.20;48.20;;;;;;5034017;28;20329;-47
2021/06/03 06:43:15;;;;;;;4.90;3.80;;;24.40;47.90;;;;;;5033624;28;20873;-44
2021/06/03 06:45:42;;;;;;;4.07;3.77;;;24.50;47.80;;;;;;5032687;28;20432;-48
2021/06/03 06:48:09;;;;;;;5.10;4.60;;;24.60;48.00;;;;;;5028551;28;20446;-44
2021/06/03 06:50:36;;;;;;;4.40;4.10;;;24.80;48.00;;;;;;5053631;28;20431;-44
2021/06/03 06:53:04;;;;;;;4.63;4.23;;;24.80;47.80;;;;;;5054032;28;20485;-44
2021/06/03 06:55:29;;;;;;;4.47;4.07;;;24.90;47.50;;;;;;5035737;28;20478;-45
2021/06/03 06:57:55;;;;;;;4.80;4.40;;;25.00;47.10;;;;;;5032600;28;20484;-44
2021/06/03 07:00:26;;;;;;;4.67;4.30;;;25.10;46.90;;;;;;5033225;28;20615;-44
2021/06/03 07:02:52;;;;;;;5.00;4.60;;;25.00;47.40;;;;;;5034080;28;20196;-44
2021/06/03 07:05:17;;;;;;;4.17;3.83;;;25.10;47.40;;;;;;5033154;28;20793;-44
2021/06/03 07:07:43;;;;;;;4.70;4.30;;;25.10;47.50;;;;;;5033617;28;20478;-44
2021/06/03 07:10:10;;;;;;;4.77;4.37;;;25.10;47.80;;;;;;5033456;28;20231;-44
2021/06/03 07:12:36;;;;;;;4.87;4.47;;;25.00;48.80;;;;;;5032433;28;20731;-43
2021/06/03 07:15:08;;;;;;;4.67;4.37;;;24.80;48.80;;;;;;5032932;28;20474;-44
2021/06/03 07:17:34;;;;;;;3.90;3.60;;;24.80;49.00;;;;;;5033342;28;20566;-44
2021/06/03 07:20:00;;;;;;;6.40;4.50;;;24.90;48.80;;;;;;5033249;28;20848;-44
2021/06/03 07:22:25;;;;;;;5.10;4.10;;;25.00;48.70;;;;;;5033597;28;20456;-44
2021/06/03 07:24:51;;;;;;;3.97;3.67;;;25.20;48.40;;;;;;5031013;28;20199;-43
2021/06/03 07:27:17;;;;;;;5.10;4.70;;;25.20;47.60;;;;;;5033419;28;20224;-43
2021/06/03 07:29:43;;;;;;;7.53;4.17;;;25.20;47.60;;;;;;5032928;28;20209;-43
2021/06/03 07:32:09;;;;;;;4.10;3.80;;;25.30;47.70;;;;;;5033600;28;20514;-43
2021/06/03 07:34:36;;;;;;;5.73;4.37;;;25.30;47.90;;;;;;5032514;28;20519;-43
2021/06/03 07:37:02;;;;;;;4.80;4.50;;;25.20;48.00;;;;;;5033096;28;20193;-44
2021/06/03 07:39:28;;;;;;;4.30;4.00;;;25.20;48.30;;;;;;5032848;28;20424;-44
2021/06/03 07:41:54;;;;;;;4.47;4.07;;;25.20;48.10;;;;;;5032993;28;20424;-44
2021/06/03 07:44:20;;;;;;;4.70;4.33;;;25.40;48.20;;;;;;5034974;28;20447;-44
2021/06/03 07:46:46;;;;;;;6.30;4.17;;;25.60;47.80;;;;;;5052895;28;20557;-44
2021/06/03 07:49:13;;;;;;;3.77;3.33;;;25.60;47.80;;;;;;5052719;28;20200;-44
2021/06/03 07:51:42;;;;;;;4.43;4.00;;;25.70;47.80;;;;;;5051444;28;20458;-45
2021/06/03 07:54:08;;;;;;;5.13;4.63;;;25.90;47.70;;;;;;5048682;28;20460;-43
2021/06/03 07:56:35;;;;;;;4.10;3.80;;;25.90;47.80;;;;;;5030416;28;20433;-43
2021/06/03 07:59:01;;;;;;;5.17;4.17;;;26.00;47.80;;;;;;5032273;28;20926;-43
2021/06/03 08:01:27;;;;;;;4.67;4.27;;;26.00;47.90;;;;;;5032785;28;20935;-44
2021/06/03 08:03:53;;;;;;;6.00;4.50;;;26.00;47.70;;;;;;5032205;28;20440;-43
2021/06/03 08:06:18;;;;;;;4.53;4.13;;;25.90;47.60;;;;;;5032011;28;20218;-48
2021/06/03 08:08:44;;;;;;;4.60;4.17;;;25.80;48.10;;;;;;5032272;28;20436;-46
2021/06/03 08:11:10;;;;;;;4.23;3.93;;;25.60;48.70;;;;;;5032603;28;20193;-47
2021/06/03 08:13:36;;;;;;;6.00;4.17;;;25.50;48.90;;;;;;5032151;28;20676;-47
2021/06/03 08:16:03;;;;;;;4.40;4.00;;;25.70;48.90;;;;;;5032047;28;20511;-47
2021/06/03 08:18:29;;;;;;;4.33;3.80;;;25.80;48.70;;;;;;5030003;28;20249;-45
2021/06/03 08:20:58;;;;;;;5.07;4.37;;;25.50;49.10;;;;;;5032621;28;20436;-47
2021/06/03 08:23:26;;;;;;;3.93;3.63;;;25.30;49.70;;;;;;5031749;28;20534;-48
2021/06/03 08:25:52;;;;;;;4.57;3.70;;;25.40;49.90;;;;;;5031893;28;20847;-45
2021/06/03 08:28:18;;;;;;;4.33;3.93;;;25.50;49.80;;;;;;5031681;28;20535;-48
2021/06/03 08:30:46;;;;;;;4.40;4.00;;;25.60;49.70;;;;;;5032132;28;20478;-48
2021/06/03 08:33:12;;;;;;;7.83;4.13;;;25.70;49.40;;;;;;5032055;28;20819;-43
2021/06/03 08:35:38;;;;;;;4.03;3.63;;;25.80;49.30;;;;;;5031456;28;20448;-48
2021/06/03 08:38:06;;;;;;;4.40;3.93;;;25.80;49.00;;;;;;5032097;28;20998;-44
2021/06/03 08:40:39;;;;;;;4.33;3.93;;;25.30;50.00;;;;;;5030288;28;20416;-44
2021/06/03 08:43:07;;;;;;;4.17;3.87;;;25.30;50.00;;;;;;5029237;28;20436;-45
2021/06/03 08:45:34;;;;;;;4.37;4.03;;;25.60;49.50;;;;;;5017189;28;20859;-45
2021/06/03 08:48:00;;;;;;;4.43;4.07;;;26.10;49.50;;;;;;5031851;28;20420;-44
2021/06/03 08:50:30;;;;;;;4.30;4.00;;;26.30;48.80;;;;;;5031396;28;20482;-48
2021/06/03 08:52:57;;;;;;;4.00;3.17;;;26.40;48.90;;;;;;5031868;28;20425;-48
2021/06/03 08:58:12;;;;;;;3.50;3.20;;;26.50;48.70;;;;;;5032014;28;20538;-48
2021/06/03 09:00:39;;;;;;;4.60;3.97;;;26.80;48.60;;;;;;5031426;28;20428;-45
2021/06/03 09:03:05;;;;;;;4.37;3.33;;;27.10;47.90;;;;;;5031917;28;20424;-48
2021/06/03 09:05:31;;;;;;;3.90;3.00;;;27.30;47.50;;;;;;5031153;28;20450;-47
2021/06/03 09:07:57;;;;;;;3.80;3.13;;;27.50;46.10;;;;;;5031784;28;20242;-43
2021/06/03 09:10:31;;;;;;;3.50;2.80;;;27.20;46.30;;;;;;5029261;28;20201;-45
2021/06/03 09:13:24;;;;;;;3.77;3.50;;;27.40;46.50;;;;;;5031857;28;20491;-45
2021/06/03 09:15:53;;;;;;;3.50;3.20;;;27.80;46.20;;;;;;5031212;28;20945;-44
2021/06/03 09:18:30;;;;;;;3.63;3.33;;;28.30;45.90;;;;;;5030635;28;20590;-44
2021/06/03 09:21:06;;;;;;;4.17;3.77;;;28.80;44.50;;;;;;5031493;28;20464;-47
2021/06/03 09:23:33;;;;;;;3.57;2.97;;;29.10;42.90;;;;;;5031328;28;20434;-45
2021/06/03 09:26:05;;;;;;;3.43;3.13;;;29.30;42.40;;;;;;5031084;28;20931;-45
2021/06/03 09:28:34;;;;;;;3.40;3.20;;;29.50;42.90;;;;;;5030946;28;20855;-45
2021/06/03 09:31:09;;;;;;;3.63;3.27;;;29.90;42.60;;;;;;5031669;28;20530;-48
2021/06/03 09:33:53;;;;;;;3.20;2.90;;;30.20;42.10;;;;;;5030875;28;20817;-44
2021/06/03 09:36:26;;;;;;;3.57;3.27;;;30.50;40.00;;;;;;5031133;28;20512;-46
2021/06/03 09:39:27;;;;;;;3.20;3.00;;;30.70;40.50;;;;;;5028488;28;20492;-47
2021/06/03 09:42:12;;;;;;;3.90;3.07;;;30.90;39.70;;;;;;5031406;28;20471;-45
2021/06/03 09:44:56;;;;;;;4.00;3.47;;;31.10;39.60;;;;;;5024956;28;20498;-45
2021/06/03 09:47:39;;;;;;;3.53;3.30;;;31.00;38.60;;;;;;5019605;28;20502;-48
2021/06/03 09:50:07;;;;;;;3.50;2.73;;;30.90;39.60;;;;;;5030905;28;20428;-44
2021/06/03 09:52:35;;;;;;;4.60;3.50;;;31.20;38.90;;;;;;5031443;28;20515;-45
2021/06/03 09:55:04;;;;;;;3.60;3.20;;;31.60;38.30;;;;;;5026227;28;20487;-44
2021/06/03 09:57:35;;;;;;;2.93;2.73;;;31.30;38.70;;;;;;5031251;28;20982;-44
2021/06/03 10:00:04;;;;;;;3.00;2.73;;;31.50;39.00;;;;;;5031838;28;20432;-44
2021/06/03 10:02:32;;;;;;;3.27;2.80;;;32.00;39.90;;;;;;5035175;28;20424;-44
2021/06/03 10:04:58;;;;;;;2.83;2.63;;;32.00;37.20;;;;;;5032712;28;20455;-46
2021/06/03 10:07:27;;;;;;;3.40;2.70;;;31.70;37.20;;;;;;5035178;28;20507;-46
2021/06/03 10:09:59;;;;;;;3.10;2.87;;;31.70;37.60;;;;;;5034467;28;20458;-46
2021/06/03 10:12:25;;;;;;;3.60;3.30;;;31.90;37.30;;;;;;5035122;28;20424;-48
2021/06/03 10:14:55;;;;;;;4.33;2.90;;;32.20;37.10;;;;;;5033801;28;20478;-49
2021/06/03 10:17:30;;;;;;;2.97;2.77;;;32.50;36.90;;;;;;5034581;28;20244;-49
2021/06/03 10:20:04;;;;;;;4.13;2.50;;;32.80;36.30;;;;;;5034334;28;20428;-47
2021/06/03 10:22:32;;;;;;;3.00;2.80;;;33.20;36.00;;;;;;5034620;28;20901;-49
2021/06/03 10:25:07;;;;;;;2.80;2.53;;;33.20;36.10;;;;;;5033974;28;20416;-48
2021/06/03 10:27:36;;;;;;;2.93;2.73;;;32.80;35.20;;;;;;5034436;28;20470;-48
2021/06/03 10:30:07;;;;;;;2.93;2.73;;;32.80;35.80;;;;;;5031410;28;20428;-49
2021/06/03 10:32:33;;;;;;;3.27;3.07;;;33.00;35.10;;;;;;5034134;28;20459;-48
2021/06/03 10:35:00;;;;;;;2.63;2.40;;;33.00;35.50;;;;;;5033796;28;20833;-48
2021/06/03 10:37:26;;;;;;;5.33;2.80;;;33.30;34.40;;;;;;5034580;28;20227;-48
2021/06/03 10:39:55;;;;;;;2.70;2.50;;;33.60;34.70;;;;;;5033476;28;20420;-47
2021/06/03 10:42:23;;;;;;;2.40;2.20;;;33.80;33.60;;;;;;5021538;28;20471;-46
2021/06/03 10:44:49;;;;;;;3.07;2.33;;;33.70;32.60;;;;;;5033350;28;20431;-48
2021/06/03 10:47:16;;;;;;;3.10;2.40;;;;;;;;;;5029979;28;20960;-49
2021/06/03 10:49:43;;;;;;;4.20;2.03;;;34.00;31.90;;;;;;5053440;28;20462;-49
2021/06/03 10:52:10;;;;;;;2.20;2.00;;;33.90;32.30;;;;;;5054061;28;20455;-48
2021/06/03 10:54:42;;;;;;;2.47;1.70;;;34.00;31.70;;;;;;5042806;28;20425;-47
2021/06/03 10:57:08;;;;;;;1.97;1.87;;;34.40;31.00;;;;;;5032534;28;20472;-45
2021/06/03 10:59:36;;;;;;;2.50;2.20;;;34.60;30.90;;;;;;5033440;28;20451;-49
2021/06/03 11:02:03;;;;;;;2.77;2.57;;;34.40;30.90;;;;;;5033975;28;20915;-45
2021/06/03 11:04:31;;;;;;;2.60;2.40;;;34.30;31.30;;;;;;5032998;28;20432;-49
2021/06/03 11:06:57;;;;;;;2.87;2.67;;;34.20;30.70;;;;;;5033963;28;20836;-47
2021/06/03 11:09:29;;;;;;;6.00;3.30;;;34.40;31.00;;;;;;5033228;28;20456;-48
2021/06/03 11:12:08;;;;;;;4.63;2.90;;;34.40;31.30;;;;;;5033328;28;20511;-48
2021/06/03 11:15:01;;;;;;;2.53;2.33;;;34.50;30.60;;;;;;5032757;28;20424;-47
2021/06/03 11:17:53;;;;;;;2.93;2.60;;;34.80;30.60;;;;;;5033449;28;20486;-47
2021/06/03 11:20:40;;;;;;;2.80;2.60;;;34.80;29.70;;;;;;5024712;28;20579;-48
2021/06/03 11:23:33;;;;;;;2.63;2.40;;;34.50;30.10;;;;;;5019563;28;20448;-48
2021/06/03 11:26:02;;;;;;;4.40;2.57;;;34.30;30.90;;;;;;5033275;28;20515;-49
2021/06/03 11:28:28;;;;;;;2.70;2.50;;;34.00;30.80;;;;;;5033086;28;20416;-47
2021/06/03 11:30:55;;;;;;;2.63;2.40;;;34.00;31.20;;;;;;5033313;28;20799;-49
2021/06/03 11:33:21;;;;;;;2.57;2.37;;;34.00;30.90;;;;;;5033333;28;20288;-45
2021/06/03 11:35:46;;;;;;;2.70;2.50;;;34.50;31.20;;;;;;5032965;28;20913;-49
2021/06/03 11:38:42;;;;;;;2.40;2.20;;;34.70;30.70;;;;;;5032904;28;20225;-47
2021/06/03 11:41:39;;;;;;;2.90;2.33;;;35.10;30.10;;;;;;5026278;28;20192;-47
2021/06/03 11:44:06;;;;;;;3.70;2.50;;;34.70;29.80;;;;;;5032091;28;20440;-49
2021/06/03 11:46:49;;;;;;;3.07;2.87;;;34.20;31.00;;;;;;5033409;28;20799;-46
2021/06/03 11:49:35;;;;;;;2.97;2.70;;;34.30;30.60;;;;;;5030768;28;20436;-48
2021/06/03 11:52:10;;;;;;;3.10;2.80;;;34.30;31.20;;;;;;5033126;28;20427;-45
2021/06/03 11:55:00;;;;;;;2.40;2.30;;;34.70;31.20;;;;;;5027905;28;20447;-49
2021/06/03 11:57:34;;;;;;;3.03;2.70;;;35.00;29.70;;;;;;5032895;28;20439;-45
2021/06/03 12:00:03;;;;;;;4.07;2.57;;;35.20;29.40;;;;;;5032423;28;20428;-48
2021/06/03 12:02:34;;;;;;;2.87;2.40;;;35.10;29.70;;;;;;5032903;28;20516;-45
2021/06/03 12:05:09;;;;;;;2.57;2.27;;;35.10;29.80;;;;;;5031866;28;20459;-47
2021/06/03 12:07:51;;;;;;;3.00;2.80;;;35.10;29.80;;;;;;5032612;28;20436;-47
2021/06/03 12:10:41;;;;;;;6.27;2.43;;;35.00;30.00;;;;;;5030636;28;20446;-49
2021/06/03 12:13:20;;;;;;;2.00;1.90;;;34.90;29.80;;;;;;5032566;28;20468;-48
2021/06/03 12:15:47;;;;;;;2.67;2.47;;;34.70;30.90;;;;;;5030339;28;20454;-47
2021/06/03 12:18:13;;;;;;;5.90;2.07;;;34.50;31.30;;;;;;5032055;28;20494;-48
2021/06/03 12:20:39;;;;;;;4.90;2.40;;;34.30;31.60;;;;;;5026763;28;20444;-45
2021/06/03 12:23:07;;;;;;;3.20;2.90;;;33.90;32.00;;;;;;5051447;28;20434;-45
2021/06/03 12:25:34;;;;;;;3.40;3.20;;;33.80;33.00;;;;;;5051572;28;20915;-44
2021/06/03 12:28:00;;;;;;;8.23;3.37;;;33.90;34.00;;;;;;5052469;28;20454;-48
2021/06/03 12:30:33;;;;;;;3.57;3.27;;;33.90;34.00;;;;;;5051455;28;20454;-48
2021/06/03 12:33:09;;;;;;;5.80;3.50;;;33.90;34.20;;;;;;5052513;28;20275;-46
2021/06/03 12:35:40;;;;;;;3.33;3.03;;;33.80;34.60;;;;;;5051340;28;20434;-45
2021/06/03 12:38:06;;;;;;;4.43;2.93;;;33.90;34.60;;;;;;5052068;28;20493;-49
2021/06/03 12:40:33;;;;;;;3.87;3.57;;;34.00;34.10;;;;;;5030626;28;20422;-46
2021/06/03 12:43:02;;;;;;;4.57;3.10;;;34.10;33.90;;;;;;5030941;28;20522;-47
2021/06/03 12:45:32;;;;;;;3.23;2.70;;;34.20;33.10;;;;;;5031273;28;20459;-47
2021/06/03 12:47:58;;;;;;;10.43;5.90;;;34.30;32.80;;;;;;5032342;28;20432;-45
2021/06/03 12:50:24;;;;;;;6.17;5.57;;;34.30;33.20;;;;;;5031314;28;20432;-44
2021/06/03 12:52:50;;;;;;;10.80;7.40;;;34.20;34.00;;;;;;5031930;28;20490;-46
2021/06/03 12:55:19;;;;;;;6.60;6.00;;;34.00;34.10;;;;;;5027274;28;20200;-47
2021/06/03 12:57:45;;;;;;;7.97;6.33;;;33.80;34.60;;;;;;5031821;28;20663;-47
2021/06/03 13:00:15;;;;;;;5.53;4.73;;;33.70;35.30;;;;;;5031262;28;20432;-45